sensor_id;sensor_type;location;lat;lon;timestamp;P1;durP1;ratioP1;P2;durP2;ratioP2
40953;SDS011;26686;50.130;8.710;2024-02-28T00:01:19;13.20;;;11.73;;
40953;SDS011;26686;50.130;8.710;2024-02-28T00:06:21;13.32;;;11.90;;
40953;SDS011;26686;50.130;8.710;2024-02-28T00:11:22;13.07;;;11.75;;
40953;SDS011;26686;50.130;8.710;2024-02-28T00:16:24;13.27;;;11.75;;
40953;SDS011;26686;50.130;8.710;2024-02-28T00:21:29;13.65;;;11.38;;
40953;SDS011;26686;50.130;8.710;2024-02-28T00:26:33;13.10;;;11.88;;
40953;SDS011;26686;50.130;8.710;2024-02-28T00:31:34;14.43;;;11.93;;
40953;SDS011;26686;50.130;8.710;2024-02-28T00:36:36;12.98;;;11.55;;
40953;SDS011;26686;50.130;8.710;2024-02-28T00:41:56;12.15;;;10.90;;
40953;SDS011;26686;50.130;8.710;2024-02-28T00:46:57;14.38;;;11.85;;
40953;SDS011;26686;50.130;8.710;2024-02-28T00:51:59;14.80;;;12.48;;
40953;SDS011;26686;50.130;8.710;2024-02-28T00:57:00;14.02;;;12.57;;
40953;SDS011;26686;50.130;8.710;2024-02-28T01:02:02;14.85;;;12.88;;
40953;SDS011;26686;50.130;8.710;2024-02-28T01:07:04;15.73;;;13.05;;
40953;SDS011;26686;50.130;8.710;2024-02-28T01:12:06;14.75;;;12.40;;
40953;SDS011;26686;50.130;8.710;2024-02-28T01:17:07;14.68;;;13.10;;
40953;SDS011;26686;50.130;8.710;2024-02-28T01:22:11;13.63;;;12.05;;
40953;SDS011;26686;50.130;8.710;2024-02-28T01:27:13;15.00;;;12.60;;
40953;SDS011;26686;50.130;8.710;2024-02-28T01:32:15;14.50;;;12.90;;
40953;SDS011;26686;50.130;8.710;2024-02-28T01:37:17;14.93;;;13.32;;
40953;SDS011;26686;50.130;8.710;2024-02-28T01:42:18;14.23;;;12.73;;
40953;SDS011;26686;50.130;8.710;2024-02-28T01:47:19;14.45;;;12.95;;
40953;SDS011;26686;50.130;8.710;2024-02-28T01:52:21;14.35;;;12.90;;
40953;SDS011;26686;50.130;8.710;2024-02-28T01:57:24;13.50;;;12.10;;
40953;SDS011;26686;50.130;8.710;2024-02-28T02:02:26;15.15;;;13.30;;
40953;SDS011;26686;50.130;8.710;2024-02-28T02:07:28;14.95;;;13.35;;
40953;SDS011;26686;50.130;8.710;2024-02-28T02:12:30;15.48;;;13.88;;
40953;SDS011;26686;50.130;8.710;2024-02-28T02:17:41;15.98;;;13.30;;
40953;SDS011;26686;50.130;8.710;2024-02-28T02:22:42;15.52;;;13.25;;
40953;SDS011;26686;50.130;8.710;2024-02-28T02:27:44;17.40;;;13.98;;
40953;SDS011;26686;50.130;8.710;2024-02-28T02:32:53;16.50;;;13.70;;
40953;SDS011;26686;50.130;8.710;2024-02-28T02:37:55;16.60;;;14.27;;
40953;SDS011;26686;50.130;8.710;2024-02-28T02:42:56;16.58;;;14.70;;
40953;SDS011;26686;50.130;8.710;2024-02-28T02:47:57;17.15;;;14.48;;
40953;SDS011;26686;50.130;8.710;2024-02-28T02:52:59;15.80;;;13.55;;
40953;SDS011;26686;50.130;8.710;2024-02-28T02:58:00;14.68;;;13.18;;
40953;SDS011;26686;50.130;8.710;2024-02-28T03:03:03;17.58;;;14.88;;
40953;SDS011;26686;50.130;8.710;2024-02-28T03:08:07;17.60;;;14.70;;
40953;SDS011;26686;50.130;8.710;2024-02-28T03:13:08;17.60;;;15.73;;
40953;SDS011;26686;50.130;8.710;2024-02-28T03:18:10;17.67;;;14.73;;
40953;SDS011;26686;50.130;8.710;2024-02-28T03:23:12;18.45;;;15.48;;
40953;SDS011;26686;50.130;8.710;2024-02-28T03:28:13;17.63;;;15.57;;
40953;SDS011;26686;50.130;8.710;2024-02-28T03:33:15;16.95;;;14.50;;
40953;SDS011;26686;50.130;8.710;2024-02-28T03:38:16;17.45;;;14.98;;
40953;SDS011;26686;50.130;8.710;2024-02-28T03:43:18;18.88;;;15.32;;
40953;SDS011;26686;50.130;8.710;2024-02-28T03:48:20;18.77;;;15.98;;
40953;SDS011;26686;50.130;8.710;2024-02-28T03:53:21;18.05;;;15.20;;
40953;SDS011;26686;50.130;8.710;2024-02-28T03:58:23;16.65;;;14.93;;
40953;SDS011;26686;50.130;8.710;2024-02-28T04:03:24;18.27;;;15.60;;
40953;SDS011;26686;50.130;8.710;2024-02-28T04:08:25;18.58;;;15.80;;
40953;SDS011;26686;50.130;8.710;2024-02-28T04:13:27;17.20;;;14.98;;
40953;SDS011;26686;50.130;8.710;2024-02-28T04:18:29;18.25;;;16.15;;
40953;SDS011;26686;50.130;8.710;2024-02-28T04:23:33;19.25;;;15.60;;
40953;SDS011;26686;50.130;8.710;2024-02-28T04:28:34;19.58;;;16.45;;
40953;SDS011;26686;50.130;8.710;2024-02-28T04:33:36;18.98;;;15.95;;
40953;SDS011;26686;50.130;8.710;2024-02-28T04:38:38;19.58;;;16.30;;
40953;SDS011;26686;50.130;8.710;2024-02-28T04:43:39;21.95;;;17.50;;
40953;SDS011;26686;50.130;8.710;2024-02-28T04:48:41;20.65;;;17.00;;
40953;SDS011;26686;50.130;8.710;2024-02-28T04:53:42;20.73;;;16.90;;
40953;SDS011;26686;50.130;8.710;2024-02-28T04:58:44;20.08;;;16.80;;
40953;SDS011;26686;50.130;8.710;2024-02-28T05:03:46;19.48;;;17.08;;
40953;SDS011;26686;50.130;8.710;2024-02-28T05:08:48;20.67;;;17.80;;
40953;SDS011;26686;50.130;8.710;2024-02-28T05:13:49;22.48;;;18.05;;
40953;SDS011;26686;50.130;8.710;2024-02-28T05:18:51;23.33;;;19.08;;
40953;SDS011;26686;50.130;8.710;2024-02-28T05:23:52;21.50;;;17.35;;
40953;SDS011;26686;50.130;8.710;2024-02-28T05:28:57;22.35;;;19.27;;
40953;SDS011;26686;50.130;8.710;2024-02-28T05:34:00;23.00;;;18.88;;
40953;SDS011;26686;50.130;8.710;2024-02-28T05:39:02;22.75;;;18.60;;
40953;SDS011;26686;50.130;8.710;2024-02-28T05:44:07;23.63;;;19.05;;
40953;SDS011;26686;50.130;8.710;2024-02-28T05:49:12;25.15;;;19.17;;
40953;SDS011;26686;50.130;8.710;2024-02-28T05:54:14;22.23;;;18.55;;
40953;SDS011;26686;50.130;8.710;2024-02-28T05:59:15;21.65;;;18.08;;
40953;SDS011;26686;50.130;8.710;2024-02-28T06:04:16;24.08;;;18.80;;
40953;SDS011;26686;50.130;8.710;2024-02-28T06:09:19;20.70;;;18.02;;
40953;SDS011;26686;50.130;8.710;2024-02-28T06:14:22;23.75;;;18.90;;
40953;SDS011;26686;50.130;8.710;2024-02-28T06:19:23;26.55;;;19.80;;
40953;SDS011;26686;50.130;8.710;2024-02-28T06:24:24;24.13;;;19.73;;
40953;SDS011;26686;50.130;8.710;2024-02-28T06:29:26;23.48;;;19.52;;
40953;SDS011;26686;50.130;8.710;2024-02-28T06:34:28;25.40;;;21.60;;
40953;SDS011;26686;50.130;8.710;2024-02-28T06:39:29;22.80;;;19.85;;
40953;SDS011;26686;50.130;8.710;2024-02-28T06:44:33;23.20;;;19.45;;
40953;SDS011;26686;50.130;8.710;2024-02-28T06:49:34;22.02;;;18.70;;
40953;SDS011;26686;50.130;8.710;2024-02-28T06:54:35;25.40;;;19.60;;
40953;SDS011;26686;50.130;8.710;2024-02-28T06:59:40;25.20;;;20.20;;
40953;SDS011;26686;50.130;8.710;2024-02-28T07:04:41;25.85;;;20.08;;
40953;SDS011;26686;50.130;8.710;2024-02-28T07:09:43;23.20;;;20.05;;
40953;SDS011;26686;50.130;8.710;2024-02-28T07:14:46;24.70;;;20.75;;
40953;SDS011;26686;50.130;8.710;2024-02-28T07:19:49;25.35;;;19.88;;
40953;SDS011;26686;50.130;8.710;2024-02-28T07:24:50;24.25;;;19.38;;
40953;SDS011;26686;50.130;8.710;2024-02-28T07:29:52;25.38;;;20.48;;
40953;SDS011;26686;50.130;8.710;2024-02-28T07:34:53;23.65;;;20.45;;
40953;SDS011;26686;50.130;8.710;2024-02-28T07:39:55;24.70;;;19.00;;
40953;SDS011;26686;50.130;8.710;2024-02-28T07:44:58;22.77;;;19.23;;
40953;SDS011;26686;50.130;8.710;2024-02-28T07:50:00;23.00;;;20.05;;
40953;SDS011;26686;50.130;8.710;2024-02-28T07:55:02;22.85;;;17.95;;
40953;SDS011;26686;50.130;8.710;2024-02-28T08:00:04;23.75;;;18.20;;
40953;SDS011;26686;50.130;8.710;2024-02-28T08:05:06;20.88;;;17.77;;
40953;SDS011;26686;50.130;8.710;2024-02-28T08:10:12;20.98;;;17.00;;
40953;SDS011;26686;50.130;8.710;2024-02-28T08:15:13;21.65;;;17.25;;
40953;SDS011;26686;50.130;8.710;2024-02-28T08:20:15;19.52;;;16.30;;
40953;SDS011;26686;50.130;8.710;2024-02-28T08:25:17;19.67;;;17.33;;
40953;SDS011;26686;50.130;8.710;2024-02-28T08:30:19;18.75;;;15.98;;
40953;SDS011;26686;50.130;8.710;2024-02-28T08:35:20;19.13;;;16.10;;
40953;SDS011;26686;50.130;8.710;2024-02-28T08:40:31;18.23;;;15.75;;
40953;SDS011;26686;50.130;8.710;2024-02-28T08:45:32;18.00;;;15.52;;
40953;SDS011;26686;50.130;8.710;2024-02-28T08:50:38;16.63;;;14.70;;
40953;SDS011;26686;50.130;8.710;2024-02-28T08:55:41;21.15;;;14.82;;
40953;SDS011;26686;50.130;8.710;2024-02-28T09:00:42;17.55;;;14.57;;
40953;SDS011;26686;50.130;8.710;2024-02-28T09:05:43;19.98;;;15.30;;
40953;SDS011;26686;50.130;8.710;2024-02-28T09:10:45;16.58;;;14.77;;
40953;SDS011;26686;50.130;8.710;2024-02-28T09:15:49;20.33;;;14.77;;
40953;SDS011;26686;50.130;8.710;2024-02-28T09:20:55;18.55;;;15.48;;
40953;SDS011;26686;50.130;8.710;2024-02-28T09:25:56;19.73;;;15.23;;
40953;SDS011;26686;50.130;8.710;2024-02-28T09:30:59;17.65;;;14.48;;
40953;SDS011;26686;50.130;8.710;2024-02-28T09:36:04;17.80;;;14.65;;
40953;SDS011;26686;50.130;8.710;2024-02-28T09:41:05;18.15;;;15.27;;
40953;SDS011;26686;50.130;8.710;2024-02-28T09:46:07;19.58;;;15.52;;
40953;SDS011;26686;50.130;8.710;2024-02-28T09:51:13;19.95;;;15.88;;
40953;SDS011;26686;50.130;8.710;2024-02-28T09:56:16;20.88;;;15.82;;
40953;SDS011;26686;50.130;8.710;2024-02-28T10:01:17;23.17;;;17.70;;
40953;SDS011;26686;50.130;8.710;2024-02-28T10:06:22;22.83;;;17.30;;
40953;SDS011;26686;50.130;8.710;2024-02-28T10:11:25;20.77;;;17.23;;
40953;SDS011;26686;50.130;8.710;2024-02-28T10:16:27;21.73;;;17.45;;
40953;SDS011;26686;50.130;8.710;2024-02-28T10:21:30;20.95;;;17.88;;
40953;SDS011;26686;50.130;8.710;2024-02-28T10:26:41;22.88;;;17.92;;
40953;SDS011;26686;50.130;8.710;2024-02-28T10:31:46;22.13;;;17.60;;
40953;SDS011;26686;50.130;8.710;2024-02-28T10:36:53;22.83;;;18.50;;
40953;SDS011;26686;50.130;8.710;2024-02-28T10:41:54;27.52;;;20.38;;
40953;SDS011;26686;50.130;8.710;2024-02-28T10:46:57;25.42;;;20.08;;
40953;SDS011;26686;50.130;8.710;2024-02-28T10:52:02;24.67;;;18.27;;
40953;SDS011;26686;50.130;8.710;2024-02-28T10:57:05;23.10;;;18.40;;
40953;SDS011;26686;50.130;8.710;2024-02-28T11:02:06;21.85;;;17.42;;
40953;SDS011;26686;50.130;8.710;2024-02-28T11:07:09;25.38;;;18.67;;
40953;SDS011;26686;50.130;8.710;2024-02-28T11:12:23;22.52;;;17.85;;
40953;SDS011;26686;50.130;8.710;2024-02-28T11:17:28;23.92;;;18.17;;
40953;SDS011;26686;50.130;8.710;2024-02-28T11:22:31;21.58;;;17.23;;
40953;SDS011;26686;50.130;8.710;2024-02-28T11:27:45;20.00;;;16.30;;
40953;SDS011;26686;50.130;8.710;2024-02-28T11:32:47;20.80;;;16.77;;
40953;SDS011;26686;50.130;8.710;2024-02-28T11:37:49;22.35;;;18.58;;
40953;SDS011;26686;50.130;8.710;2024-02-28T11:42:52;20.85;;;17.40;;
40953;SDS011;26686;50.130;8.710;2024-02-28T11:47:55;19.73;;;17.38;;
40953;SDS011;26686;50.130;8.710;2024-02-28T11:52:56;19.17;;;17.17;;
40953;SDS011;26686;50.130;8.710;2024-02-28T11:57:57;17.92;;;15.95;;
40953;SDS011;26686;50.130;8.710;2024-02-28T12:03:05;18.70;;;16.73;;
40953;SDS011;26686;50.130;8.710;2024-02-28T12:08:07;20.80;;;16.98;;
40953;SDS011;26686;50.130;8.710;2024-02-28T12:13:16;18.98;;;16.55;;
40953;SDS011;26686;50.130;8.710;2024-02-28T12:18:21;17.42;;;15.55;;
40953;SDS011;26686;50.130;8.710;2024-02-28T12:23:23;18.83;;;16.33;;
40953;SDS011;26686;50.130;8.710;2024-02-28T12:28:24;17.13;;;15.32;;
40953;SDS011;26686;50.130;8.710;2024-02-28T12:33:26;17.67;;;15.80;;
40953;SDS011;26686;50.130;8.710;2024-02-28T12:38:27;19.73;;;17.70;;
40953;SDS011;26686;50.130;8.710;2024-02-28T12:43:29;17.40;;;15.40;;
40953;SDS011;26686;50.130;8.710;2024-02-28T12:48:36;17.33;;;15.63;;
40953;SDS011;26686;50.130;8.710;2024-02-28T12:53:39;16.67;;;14.98;;
40953;SDS011;26686;50.130;8.710;2024-02-28T12:58:41;15.63;;;14.05;;
40953;SDS011;26686;50.130;8.710;2024-02-28T13:03:42;18.67;;;15.57;;
40953;SDS011;26686;50.130;8.710;2024-02-28T13:08:44;15.45;;;13.95;;
40953;SDS011;26686;50.130;8.710;2024-02-28T13:13:47;16.77;;;15.18;;
40953;SDS011;26686;50.130;8.710;2024-02-28T13:18:49;17.08;;;15.55;;
40953;SDS011;26686;50.130;8.710;2024-02-28T13:23:51;14.77;;;13.37;;
40953;SDS011;26686;50.130;8.710;2024-02-28T13:28:52;15.73;;;13.80;;
40953;SDS011;26686;50.130;8.710;2024-02-28T13:33:55;15.65;;;14.05;;
40953;SDS011;26686;50.130;8.710;2024-02-28T13:38:56;14.88;;;13.40;;
40953;SDS011;26686;50.130;8.710;2024-02-28T13:43:57;14.43;;;13.02;;
40953;SDS011;26686;50.130;8.710;2024-02-28T13:48:59;13.90;;;12.52;;
40953;SDS011;26686;50.130;8.710;2024-02-28T13:54:08;13.45;;;12.25;;
40953;SDS011;26686;50.130;8.710;2024-02-28T13:59:09;13.53;;;12.20;;
40953;SDS011;26686;50.130;8.710;2024-02-28T14:04:11;12.15;;;11.10;;
40953;SDS011;26686;50.130;8.710;2024-02-28T14:09:15;14.40;;;12.98;;
40953;SDS011;26686;50.130;8.710;2024-02-28T14:14:16;13.13;;;11.83;;
40953;SDS011;26686;50.130;8.710;2024-02-28T14:19:18;16.17;;;14.05;;
40953;SDS011;26686;50.130;8.710;2024-02-28T14:24:19;13.40;;;12.20;;
40953;SDS011;26686;50.130;8.710;2024-02-28T14:34:23;11.13;;;10.05;;
40953;SDS011;26686;50.130;8.710;2024-02-28T14:39:24;13.83;;;11.50;;
40953;SDS011;26686;50.130;8.710;2024-02-28T14:44:26;11.50;;;10.40;;
40953;SDS011;26686;50.130;8.710;2024-02-28T14:49:29;10.77;;;9.63;;
40953;SDS011;26686;50.130;8.710;2024-02-28T14:54:32;10.38;;;9.32;;
40953;SDS011;26686;50.130;8.710;2024-02-28T14:59:34;11.75;;;10.50;;
40953;SDS011;26686;50.130;8.710;2024-02-28T15:04:39;9.95;;;8.95;;
40953;SDS011;26686;50.130;8.710;2024-02-28T15:09:41;10.82;;;8.43;;
40953;SDS011;26686;50.130;8.710;2024-02-28T15:14:43;8.97;;;7.87;;
40953;SDS011;26686;50.130;8.710;2024-02-28T15:19:44;11.43;;;9.90;;
40953;SDS011;26686;50.130;8.710;2024-02-28T15:24:46;14.70;;;13.20;;
40953;SDS011;26686;50.130;8.710;2024-02-28T15:29:48;9.95;;;8.98;;
40953;SDS011;26686;50.130;8.710;2024-02-28T15:34:50;10.18;;;8.50;;
40953;SDS011;26686;50.130;8.710;2024-02-28T15:39:53;14.40;;;10.25;;
40953;SDS011;26686;50.130;8.710;2024-02-28T15:44:55;10.52;;;9.02;;
40953;SDS011;26686;50.130;8.710;2024-02-28T15:49:56;11.05;;;8.68;;
40953;SDS011;26686;50.130;8.710;2024-02-28T15:54:59;11.57;;;9.20;;
40953;SDS011;26686;50.130;8.710;2024-02-28T16:00:00;10.18;;;8.35;;
40953;SDS011;26686;50.130;8.710;2024-02-28T16:05:02;11.10;;;8.65;;
40953;SDS011;26686;50.130;8.710;2024-02-28T16:10:05;11.80;;;8.98;;
40953;SDS011;26686;50.130;8.710;2024-02-28T16:15:08;10.15;;;8.15;;
40953;SDS011;26686;50.130;8.710;2024-02-28T16:20:14;9.70;;;8.43;;
40953;SDS011;26686;50.130;8.710;2024-02-28T16:25:17;10.23;;;9.10;;
40953;SDS011;26686;50.130;8.710;2024-02-28T16:30:18;9.90;;;8.32;;
40953;SDS011;26686;50.130;8.710;2024-02-28T16:35:19;11.73;;;8.95;;
40953;SDS011;26686;50.130;8.710;2024-02-28T16:40:21;11.63;;;9.13;;
40953;SDS011;26686;50.130;8.710;2024-02-28T16:45:22;14.07;;;9.68;;
40953;SDS011;26686;50.130;8.710;2024-02-28T16:50:26;14.27;;;10.03;;
40953;SDS011;26686;50.130;8.710;2024-02-28T16:55:27;10.57;;;9.25;;
40953;SDS011;26686;50.130;8.710;2024-02-28T17:00:29;11.73;;;10.27;;
40953;SDS011;26686;50.130;8.710;2024-02-28T17:05:30;11.48;;;10.27;;
40953;SDS011;26686;50.130;8.710;2024-02-28T17:10:36;18.40;;;14.95;;
40953;SDS011;26686;50.130;8.710;2024-02-28T17:15:39;15.30;;;11.63;;
40953;SDS011;26686;50.130;8.710;2024-02-28T17:20:41;18.15;;;14.52;;
40953;SDS011;26686;50.130;8.710;2024-02-28T17:25:42;27.40;;;23.13;;
40953;SDS011;26686;50.130;8.710;2024-02-28T17:30:44;23.77;;;20.83;;
40953;SDS011;26686;50.130;8.710;2024-02-28T17:35:46;23.13;;;20.48;;
40953;SDS011;26686;50.130;8.710;2024-02-28T17:40:49;20.15;;;16.90;;
40953;SDS011;26686;50.130;8.710;2024-02-28T17:45:51;25.40;;;18.88;;
40953;SDS011;26686;50.130;8.710;2024-02-28T17:50:55;26.98;;;20.98;;
40953;SDS011;26686;50.130;8.710;2024-02-28T17:55:59;36.97;;;26.95;;
40953;SDS011;26686;50.130;8.710;2024-02-28T18:01:01;36.75;;;27.55;;
40953;SDS011;26686;50.130;8.710;2024-02-28T18:06:07;35.15;;;26.85;;
40953;SDS011;26686;50.130;8.710;2024-02-28T18:11:08;29.55;;;23.48;;
40953;SDS011;26686;50.130;8.710;2024-02-28T18:16:11;29.15;;;24.15;;
40953;SDS011;26686;50.130;8.710;2024-02-28T18:21:12;31.60;;;25.92;;
40953;SDS011;26686;50.130;8.710;2024-02-28T18:26:15;34.85;;;27.40;;
40953;SDS011;26686;50.130;8.710;2024-02-28T18:31:19;54.72;;;43.85;;
40953;SDS011;26686;50.130;8.710;2024-02-28T18:36:22;52.77;;;44.30;;
40953;SDS011;26686;50.130;8.710;2024-02-28T18:41:28;39.10;;;30.77;;
40953;SDS011;26686;50.130;8.710;2024-02-28T18:46:29;49.08;;;41.10;;
40953;SDS011;26686;50.130;8.710;2024-02-28T18:51:30;47.78;;;41.78;;
40953;SDS011;26686;50.130;8.710;2024-02-28T18:56:32;34.20;;;30.02;;
40953;SDS011;26686;50.130;8.710;2024-02-28T19:01:34;22.05;;;19.67;;
40953;SDS011;26686;50.130;8.710;2024-02-28T19:06:35;17.92;;;16.02;;
40953;SDS011;26686;50.130;8.710;2024-02-28T19:11:37;19.35;;;16.95;;
40953;SDS011;26686;50.130;8.710;2024-02-28T19:16:39;19.55;;;16.48;;
40953;SDS011;26686;50.130;8.710;2024-02-28T19:21:40;16.23;;;14.57;;
40953;SDS011;26686;50.130;8.710;2024-02-28T19:26:42;16.42;;;14.65;;
40953;SDS011;26686;50.130;8.710;2024-02-28T19:31:44;14.20;;;12.70;;
40953;SDS011;26686;50.130;8.710;2024-02-28T19:36:46;13.73;;;12.23;;
40953;SDS011;26686;50.130;8.710;2024-02-28T19:41:47;13.45;;;12.05;;
40953;SDS011;26686;50.130;8.710;2024-02-28T19:46:51;13.50;;;12.10;;
40953;SDS011;26686;50.130;8.710;2024-02-28T19:51:53;15.82;;;11.80;;
40953;SDS011;26686;50.130;8.710;2024-02-28T19:56:58;14.23;;;12.20;;
40953;SDS011;26686;50.130;8.710;2024-02-28T20:02:00;15.35;;;12.13;;
40953;SDS011;26686;50.130;8.710;2024-02-28T20:07:02;13.55;;;11.18;;
40953;SDS011;26686;50.130;8.710;2024-02-28T20:12:03;13.50;;;11.95;;
40953;SDS011;26686;50.130;8.710;2024-02-28T20:17:06;14.45;;;12.15;;
40953;SDS011;26686;50.130;8.710;2024-02-28T20:22:10;15.30;;;13.43;;
40953;SDS011;26686;50.130;8.710;2024-02-28T20:27:12;15.35;;;13.07;;
40953;SDS011;26686;50.130;8.710;2024-02-28T20:32:14;14.25;;;12.35;;
40953;SDS011;26686;50.130;8.710;2024-02-28T20:37:15;19.70;;;13.38;;
40953;SDS011;26686;50.130;8.710;2024-02-28T20:42:17;14.32;;;12.07;;
40953;SDS011;26686;50.130;8.710;2024-02-28T20:47:18;14.90;;;11.80;;
40953;SDS011;26686;50.130;8.710;2024-02-28T20:52:21;11.77;;;10.27;;
40953;SDS011;26686;50.130;8.710;2024-02-28T20:57:27;15.88;;;12.38;;
40953;SDS011;26686;50.130;8.710;2024-02-28T21:02:29;13.98;;;12.50;;
40953;SDS011;26686;50.130;8.710;2024-02-28T21:07:33;13.68;;;11.25;;
40953;SDS011;26686;50.130;8.710;2024-02-28T21:12:52;14.88;;;11.13;;
40953;SDS011;26686;50.130;8.710;2024-02-28T21:17:56;13.82;;;11.55;;
40953;SDS011;26686;50.130;8.710;2024-02-28T21:22:58;15.25;;;12.02;;
40953;SDS011;26686;50.130;8.710;2024-02-28T21:28:01;12.95;;;10.90;;
40953;SDS011;26686;50.130;8.710;2024-02-28T21:33:02;13.10;;;11.10;;
40953;SDS011;26686;50.130;8.710;2024-02-28T21:38:05;12.48;;;10.95;;
40953;SDS011;26686;50.130;8.710;2024-02-28T21:43:07;12.93;;;11.63;;
40953;SDS011;26686;50.130;8.710;2024-02-28T21:48:08;13.98;;;11.48;;
40953;SDS011;26686;50.130;8.710;2024-02-28T21:53:11;13.25;;;11.35;;
40953;SDS011;26686;50.130;8.710;2024-02-28T21:58:12;13.02;;;11.75;;
40953;SDS011;26686;50.130;8.710;2024-02-28T22:03:16;13.13;;;11.48;;
40953;SDS011;26686;50.130;8.710;2024-02-28T22:08:18;14.27;;;11.00;;
40953;SDS011;26686;50.130;8.710;2024-02-28T22:13:20;14.60;;;11.43;;
40953;SDS011;26686;50.130;8.710;2024-02-28T22:18:21;11.73;;;10.52;;
40953;SDS011;26686;50.130;8.710;2024-02-28T22:23:22;12.80;;;11.02;;
40953;SDS011;26686;50.130;8.710;2024-02-28T22:28:24;12.40;;;11.10;;
40953;SDS011;26686;50.130;8.710;2024-02-28T22:33:26;12.32;;;10.65;;
40953;SDS011;26686;50.130;8.710;2024-02-28T22:38:29;11.50;;;10.38;;
40953;SDS011;26686;50.130;8.710;2024-02-28T22:43:30;14.32;;;12.40;;
40953;SDS011;26686;50.130;8.710;2024-02-28T22:48:34;16.15;;;11.98;;
40953;SDS011;26686;50.130;8.710;2024-02-28T22:53:36;15.23;;;11.57;;
40953;SDS011;26686;50.130;8.710;2024-02-28T22:58:39;14.82;;;12.43;;
40953;SDS011;26686;50.130;8.710;2024-02-28T23:03:40;17.63;;;11.55;;
40953;SDS011;26686;50.130;8.710;2024-02-28T23:08:42;14.05;;;11.73;;
40953;SDS011;26686;50.130;8.710;2024-02-28T23:13:44;14.48;;;11.82;;
40953;SDS011;26686;50.130;8.710;2024-02-28T23:18:45;12.48;;;11.18;;
40953;SDS011;26686;50.130;8.710;2024-02-28T23:23:47;12.80;;;11.43;;
40953;SDS011;26686;50.130;8.710;2024-02-28T23:28:48;12.10;;;10.55;;
40953;SDS011;26686;50.130;8.710;2024-02-28T23:33:50;11.35;;;10.25;;
40953;SDS011;26686;50.130;8.710;2024-02-28T23:38:51;12.68;;;11.38;;
40953;SDS011;26686;50.130;8.710;2024-02-28T23:43:53;11.48;;;10.27;;
40953;SDS011;26686;50.130;8.710;2024-02-28T23:48:58;12.32;;;10.80;;
40953;SDS011;26686;50.130;8.710;2024-02-28T23:53:59;14.15;;;10.68;;
40953;SDS011;26686;50.130;8.710;2024-02-28T23:59:02;12.13;;;10.82;;
